Time;durP1;ratioP1;P1;durP2;ratioP2;P2;SDS_P1;SDS_P2;PMS_P1;PMS_P2;Temp;Humidity;BMP_temperature;BMP_pressure;BME280_temperature;BME280_humidity;BME280_pressure;Samples;Min_cycle;Max_cycle;Signal;HPM_P1;HPM_P2
2022/03/21 07:38:42;;;;;;;;;62.50;48.00;;;;;11.65;53.04;102367.09;5082532;27;45785;-70
2022/03/21 07:41:08;;;;;;;;;62.75;46.50;;;;;12.05;52.49;102362.53;5068301;27;45807;-70
2022/03/21 07:43:34;;;;;;;;;57.25;44.25;;;;;12.47;51.65;102361.25;5052737;27;45894;-71
2022/03/21 07:48:45;;;;;;;;;55.25;43.25;;;;;13.35;49.64;102347.13;5046523;28;45830;-69
2022/03/21 07:51:11;;;;;;;;;61.75;45.50;;;;;13.72;48.49;102353.63;5047982;28;45688;-68
2022/03/21 07:53:36;;;;;;;;;56.25;44.50;;;;;14.07;47.90;102363.03;5048507;28;45579;-68
2022/03/21 07:56:02;;;;;;;;;53.75;41.50;;;;;14.43;48.13;102361.31;5047899;28;46231;-68
2022/03/21 07:58:27;;;;;;;;;52.75;43.75;;;;;14.79;46.79;102365.97;5051765;28;45663;-71
2022/03/21 08:00:53;;;;;;;;;59.00;46.00;;;;;15.06;46.30;102361.56;5061448;27;45479;-69
2022/03/21 08:03:19;;;;;;;;;61.00;47.25;;;;;15.34;45.78;102358.81;5059705;28;45409;-68
2022/03/21 08:05:45;;;;;;;;;65.25;50.75;;;;;15.65;44.65;102365.81;5057425;27;45781;-69
2022/03/21 08:08:11;;;;;;;;;61.25;48.75;;;;;15.97;44.06;102363.50;5065477;28;46962;-71
2022/03/21 08:10:36;;;;;;;;;55.50;43.00;;;;;16.26;43.26;102364.25;5059287;27;45598;-70
2022/03/21 08:13:02;;;;;;;;;62.25;46.50;;;;;16.42;42.82;102365.78;5060715;28;45775;-69
2022/03/21 08:15:27;;;;;;;;;58.00;47.75;;;;;16.57;42.85;102372.03;5051688;27;45813;-69
2022/03/21 08:17:57;;;;;;;;;60.00;46.25;;;;;16.78;42.87;102361.81;5061943;27;45629;-69
2022/03/21 08:20:26;;;;;;;;;52.75;43.25;;;;;17.03;42.26;102359.31;5060342;28;45537;-69
2022/03/21 08:22:52;;;;;;;;;57.33;42.67;;;;;17.44;41.31;102361.03;5069667;28;45540;-68
2022/03/21 08:25:20;;;;;;;;;50.67;42.00;;;;;17.86;40.60;102360.72;5068118;28;45782;-70
2022/03/21 08:27:47;;;;;;;;;56.33;43.67;;;;;18.28;40.43;102364.00;5068328;27;45631;-68
2022/03/21 08:30:16;;;;;;;;;49.67;41.33;;;;;18.68;39.40;102365.69;5062295;27;45673;-71
2022/03/21 08:32:47;;;;;;;;;53.33;40.33;;;;;18.92;39.28;102361.28;5061836;28;45388;-71
2022/03/21 08:35:13;;;;;;;;;52.00;40.67;;;;;19.09;38.18;102364.38;5068198;28;45475;-71
2022/03/21 08:37:39;;;;;;;;;51.00;39.33;;;;;19.27;37.76;102365.50;5067846;27;45594;-71
2022/03/21 08:40:06;;;;;;;;;44.67;36.67;;;;;19.40;37.58;102365.38;5059797;27;45428;-71
2022/03/21 08:42:32;;;;;;;;;39.33;34.33;;;;;19.61;37.44;102369.69;5055838;28;45579;-71
2022/03/21 08:44:57;;;;;;;;;37.67;33.00;;;;;19.64;36.78;102365.56;5059255;27;45886;-71
2022/03/21 08:47:24;;;;;;;;;45.67;36.33;;;;;19.73;36.81;102362.25;5053388;27;45660;-71
2022/03/21 08:49:50;;;;;;;;;44.33;35.67;;;;;20.03;36.64;102371.78;5047032;28;45340;-71
2022/03/21 08:52:15;;;;;;;;;46.67;36.00;;;;;20.17;35.87;102369.72;5035017;28;45605;-71
2022/03/21 08:54:41;;;;;;;;;35.67;33.00;;;;;20.21;35.67;102366.22;5045607;28;45694;-72
2022/03/21 08:57:07;;;;;;;;;48.00;35.00;;;;;20.26;35.36;102363.56;5065893;28;47116;-71
2022/03/21 08:59:33;;;;;;;;;47.67;35.00;;;;;20.11;35.60;102371.50;5057894;27;45701;-72
2022/03/21 09:01:58;;;;;;;;;45.00;37.33;;;;;20.03;35.95;102372.66;5076169;27;45453;-73
2022/03/21 09:04:24;;;;;;;;;43.00;35.00;;;;;20.18;35.62;102363.91;5047632;28;45733;-72
2022/03/21 09:06:49;;;;;;;;;45.00;34.33;;;;;20.43;35.33;102366.59;5042853;28;46298;-71
2022/03/21 09:09:17;;;;;;;;;39.67;34.00;;;;;20.60;35.16;102363.97;5045397;28;45460;-73
2022/03/21 09:11:43;;;;;;;;;46.67;36.33;;;;;20.78;34.65;102363.09;5043365;28;45368;-74
2022/03/21 09:14:09;;;;;;;;;32.67;31.00;;;;;20.81;34.22;102367.34;5053242;28;45835;-72
2022/03/21 09:16:38;;;;;;;;;34.67;32.33;;;;;20.86;34.41;102361.91;5054640;28;45895;-72
2022/03/21 09:19:04;;;;;;;;;34.67;32.67;;;;;20.96;34.49;102353.81;5045390;28;45384;-72
2022/03/21 09:21:29;;;;;;;;;37.00;34.33;;;;;20.87;33.88;102346.00;5047535;28;45741;-72
2022/03/21 09:23:55;;;;;;;;;41.67;34.33;;;;;20.69;34.38;102352.50;5045701;28;45701;-73
2022/03/21 09:26:21;;;;;;;;;45.00;35.67;;;;;20.66;34.18;102356.63;5052876;28;45516;-70
2022/03/21 09:28:48;;;;;;;;;46.00;36.67;;;;;20.77;34.28;102352.19;5045304;28;45576;-71
2022/03/21 09:31:14;;;;;;;;;46.33;35.00;;;;;21.62;32.68;102347.31;5044383;28;45597;-69
2022/03/21 09:33:41;;;;;;;;;40.33;32.00;;;;;22.75;31.60;102352.44;5032888;28;46858;-72
2022/03/21 09:36:07;;;;;;;;;44.00;35.33;;;;;23.85;29.72;102345.50;5050135;28;46356;-71
2022/03/21 09:38:34;;;;;;;;;40.00;35.00;;;;;24.97;28.45;102351.59;5053271;28;45780;-72
2022/03/21 09:41:01;;;;;;;;;35.67;30.67;;;;;26.03;27.33;102342.47;5047471;28;45817;-74
2022/03/21 09:43:29;;;;;;;;;29.00;27.67;;;;;27.15;25.36;102342.97;5041464;28;45808;-72
2022/03/21 09:45:57;;;;;;;;;26.33;24.67;;;;;28.10;24.74;102342.22;5042005;28;47205;-72
2022/03/21 09:48:25;;;;;;;;;34.00;30.33;;;;;28.94;23.26;102341.41;5041380;28;45487;-72
2022/03/21 09:50:52;;;;;;;;;23.33;22.00;;;;;29.69;22.69;102342.97;5045968;28;45818;-71
2022/03/21 09:53:47;;;;;;;;;;;;;;;;;;;;;
2022/03/21 09:56:14;;;;;;;;;24.00;22.00;;;;;30.80;21.57;102340.06;5038863;28;76332;-69
2022/03/21 09:58:39;;;;;;;;;29.33;27.00;;;;;31.29;20.77;102332.19;5049642;28;45589;-70
2022/03/21 10:01:05;;;;;;;;;33.33;25.67;;;;;31.98;20.14;102329.38;5041617;28;45313;-69
2022/03/21 10:03:33;;;;;;;;;22.67;20.00;;;;;32.77;19.05;102335.00;5052567;28;45349;-68
2022/03/21 10:05:59;;;;;;;;;26.67;20.67;;;;;33.36;18.90;102327.22;5052842;28;46156;-71
2022/03/21 10:08:28;;;;;;;;;25.00;24.00;;;;;33.94;18.06;102333.81;5053321;28;45705;-71
2022/03/21 10:11:02;;;;;;;;;22.67;19.67;;;;;34.52;17.68;102325.19;5053295;28;45647;-72
2022/03/21 10:13:32;;;;;;;;;37.33;30.00;;;;;34.77;17.21;102326.41;5052652;28;45698;-72
2022/03/21 10:16:11;;;;;;;;;33.67;32.00;;;;;34.65;17.38;102327.03;5052793;28;46304;-70
2022/03/21 10:18:56;;;;;;;;;33.33;27.00;;;;;34.64;17.18;102324.53;5052927;28;45500;-71
2022/03/21 10:21:24;;;;;;;;;23.67;22.00;;;;;34.35;17.11;102330.91;5052881;28;45415;-72
2022/03/21 10:24:07;;;;;;;;;22.33;17.67;;;;;34.09;17.60;102326.00;5052676;28;45409;-73
2022/03/21 10:26:40;;;;;;;;;17.00;15.33;;;;;33.87;17.44;102316.38;5042547;28;45768;-68
2022/03/21 10:29:10;;;;;;;;;19.67;17.33;;;;;33.67;17.32;102319.78;5039548;28;45742;-69
2022/03/21 10:31:52;;;;;;;;;21.00;19.00;;;;;33.46;18.01;102313.88;5042747;28;45767;-68
2022/03/21 10:34:23;;;;;;;;;21.33;19.00;;;;;33.07;17.44;102316.31;5037903;28;46044;-75
2022/03/21 10:37:14;;;;;;;;;17.67;15.67;;;;;32.97;18.27;102317.44;5032791;28;45742;-71
2022/03/21 10:39:50;;;;;;;;;17.00;16.00;;;;;33.18;17.88;102311.22;5045912;28;45380;-70
2022/03/21 10:42:16;;;;;;;;;19.00;16.67;;;;;33.00;17.77;102304.56;5047629;28;45537;-69
2022/03/21 10:44:54;;;;;;;;;18.33;14.33;;;;;32.65;18.18;102299.47;5055929;28;45414;-73
2022/03/21 10:47:20;;;;;;;;;16.33;16.00;;;;;32.56;17.89;102305.06;5064398;28;45466;-73
2022/03/21 10:49:45;;;;;;;;;18.33;16.00;;;;;32.41;18.42;102299.75;5033572;28;45406;-74
2022/03/21 10:52:18;;;;;;;;;16.00;15.00;;;;;32.14;18.58;102304.38;5039096;28;45364;-73
2022/03/21 10:54:51;;;;;;;;;16.67;14.33;;;;;31.89;18.99;102299.22;5052583;28;45910;-70
2022/03/21 10:57:33;;;;;;;;;23.00;19.00;;;;;31.89;18.86;102304.88;5052870;28;45361;-68
2022/03/21 11:00:13;;;;;;;;;15.00;12.33;;;;;31.67;19.24;102295.16;5052964;28;45772;-68
2022/03/21 11:03:06;;;;;;;;;17.67;14.67;;;;;30.97;19.43;102297.84;5052916;28;45560;-69
2022/03/21 11:05:37;;;;;;;;;21.67;19.67;;;;;30.36;19.93;102291.19;5036823;28;45584;-69
2022/03/21 11:08:08;;;;;;;;;17.00;15.00;;;;;29.64;20.25;102294.09;5052694;28;46351;-72
2022/03/21 11:10:34;;;;;;;;;20.67;14.67;;;;;29.02;21.19;102298.41;5041789;28;45964;-72
2022/03/21 11:13:01;;;;;;;;;15.33;14.67;;;;;28.60;21.35;102285.78;5044206;28;45519;-71
2022/03/21 11:15:28;;;;;;;;;16.67;15.67;;;;;28.01;22.24;102284.75;5032522;28;45561;-74
2022/03/21 11:17:55;;;;;;;;;17.00;14.67;;;;;27.57;22.59;102289.09;5037193;28;45836;-71
2022/03/21 11:20:21;;;;;;;;;13.67;11.67;;;;;27.14;22.96;102277.34;5043909;28;45706;-73
2022/03/21 11:22:47;;;;;;;;;16.67;13.00;;;;;26.84;23.37;102281.91;5036212;28;45627;-69
2022/03/21 11:25:15;;;;;;;;;17.33;14.33;;;;;26.38;23.88;102276.22;5040758;28;45476;-71
2022/03/21 11:27:46;;;;;;;;;15.67;12.33;;;;;25.97;24.54;102274.09;5032252;28;45777;-72
2022/03/21 11:30:18;;;;;;;;;14.67;12.67;;;;;25.63;24.63;102270.88;5035126;28;45332;-72
2022/03/21 11:33:19;;;;;;;;;14.33;12.33;;;;;25.25;25.40;102270.09;5048474;28;45775;-72
2022/03/21 11:35:51;;;;;;;;;14.33;13.67;;;;;24.77;25.75;102265.25;5055902;28;45480;-72
2022/03/21 11:38:30;;;;;;;;;12.33;12.33;;;;;24.36;26.62;102270.47;5041955;28;45367;-73
2022/03/21 11:41:13;;;;;;;;;15.00;11.33;;;;;24.19;26.98;102266.91;5047488;28;45675;-73
2022/03/21 11:43:41;;;;;;;;;17.00;11.67;;;;;23.98;27.13;102261.06;5033039;28;45490;-73
2022/03/21 11:46:29;;;;;;;;;14.00;12.67;;;;;23.74;27.38;102255.75;5045212;28;45373;-73
2022/03/21 11:49:01;;;;;;;;;17.33;10.67;;;;;23.56;27.56;102264.44;5032877;28;46348;-69
2022/03/21 11:51:48;;;;;;;;;20.00;15.00;;;;;23.23;28.04;102258.69;5052936;28;45708;-70
2022/03/21 11:54:32;;;;;;;;;13.00;13.00;;;;;22.92;28.67;102258.19;5031164;28;45707;-68
2022/03/21 11:57:06;;;;;;;;;15.33;13.33;;;;;22.81;28.95;102258.28;5046980;28;45413;-68
2022/03/21 11:59:32;;;;;;;;;10.67;10.67;;;;;22.70;29.50;102252.50;5048013;28;46864;-69
2022/03/21 12:01:59;;;;;;;;;15.67;11.67;;;;;22.64;29.57;102249.88;5061224;28;45867;-67
2022/03/21 12:04:24;;;;;;;;;16.67;15.00;;;;;22.49;29.43;102256.06;5059995;27;45589;-68
2022/03/21 12:06:50;;;;;;;;;13.33;12.67;;;;;22.22;29.79;102248.28;5060897;28;45915;-69
2022/03/21 12:09:16;;;;;;;;;12.33;12.00;;;;;22.14;29.91;102245.88;5044878;28;45609;-69
2022/03/21 12:11:42;;;;;;;;;15.67;13.33;;;;;21.99;30.16;102249.22;5066794;27;45746;-68
2022/03/21 12:14:22;;;;;;;;;17.33;15.67;;;;;21.74;30.37;102241.19;5034412;28;45453;-67
2022/03/21 12:17:00;;;;;;;;;13.67;12.67;;;;;21.58;30.79;102245.59;5045877;28;45860;-67
2022/03/21 12:19:46;;;;;;;;;16.33;13.33;;;;;21.44;31.49;102237.47;5042286;28;46270;-71
2022/03/21 12:22:26;;;;;;;;;14.67;14.00;;;;;21.33;30.84;102243.91;5033871;28;45296;-69
2022/03/21 12:24:55;;;;;;;;;11.67;11.67;;;;;21.14;31.59;102234.84;5044568;28;45605;-69
2022/03/21 12:27:33;;;;;;;;;15.33;10.33;;;;;20.97;31.64;102234.69;5064427;22;45467;-74
2022/03/21 12:30:41;;;;;;;;;16.00;14.67;;;;;20.90;32.01;102239.53;5053276;28;45768;-74
2022/03/21 12:33:14;;;;;;;;;13.33;9.67;;;;;20.82;32.62;102226.81;5054200;27;45460;-79
2022/03/21 12:35:40;;;;;;;;;12.00;11.67;;;;;20.81;31.96;102231.56;5052670;28;45907;-75
2022/03/21 12:38:10;;;;;;;;;13.00;11.67;;;;;20.77;32.20;102223.91;5052674;28;45726;-74
2022/03/21 12:40:50;;;;;;;;;14.67;13.00;;;;;20.75;32.28;102213.00;5052816;28;46175;-79
2022/03/21 12:43:24;;;;;;;;;17.00;13.00;;;;;20.67;31.90;102213.34;5033985;28;45689;-80
2022/03/21 12:46:07;;;;;;;;;12.67;10.00;;;;;20.58;32.21;102203.63;5056114;28;45825;-74
2022/03/21 12:48:35;;;;;;;;;10.67;9.67;;;;;20.71;32.01;102210.94;5073441;28;45557;-74
2022/03/21 12:51:01;;;;;;;;;15.00;14.00;;;;;20.76;32.01;102202.69;5073657;28;45426;-73
2022/03/21 12:53:40;;;;;;;;;14.67;13.33;;;;;20.83;32.39;102199.81;5056806;27;45479;-79
2022/03/21 12:56:08;;;;;;;;;14.00;10.00;;;;;20.86;32.46;102204.91;5041246;28;45536;-73
2022/03/21 12:58:35;;;;;;;;;11.33;11.33;;;;;20.95;32.45;102203.44;5051721;28;45906;-74
2022/03/21 13:01:03;;;;;;;;;13.67;12.33;;;;;21.05;32.35;102203.66;5052045;28;46555;-75
2022/03/21 13:03:29;;;;;;;;;13.00;11.33;;;;;21.08;32.25;102188.41;5068248;28;45384;-74
2022/03/21 13:11:35;;;;;;;;;11.67;11.33;;;;;21.16;31.84;102188.00;5053616;28;46341;-73
2022/03/21 13:14:15;;;;;;;;;10.33;8.00;;;;;21.07;31.85;102187.53;5054459;28;45489;-80
2022/03/21 13:16:51;;;;;;;;;10.33;10.33;;;;;21.05;32.18;102183.28;5052901;28;45776;-74
2022/03/21 13:19:20;;;;;;;;;12.33;11.67;;;;;21.08;31.54;102196.75;5051535;28;45781;-79
2022/03/21 13:21:50;;;;;;;;;16.33;13.67;;;;;21.04;31.46;102176.03;5051691;28;46059;-80
2022/03/21 13:24:40;;;;;;;;;15.33;14.33;;;;;20.98;31.93;102177.84;5054225;28;45792;-78
2022/03/21 13:27:11;;;;;;;;;14.67;11.67;;;;;20.89;31.85;102169.00;5052421;28;46251;-79
2022/03/21 13:29:43;;;;;;;;;14.67;13.33;;;;;20.83;32.28;102175.53;5053200;28;45589;-75
2022/03/21 13:32:08;;;;;;;;;15.67;13.00;;;;;20.90;31.93;102178.19;5053002;28;45743;-78
2022/03/21 13:34:37;;;;;;;;;15.00;12.00;;;;;20.95;31.80;102176.38;5050951;28;45880;-77
2022/03/21 13:37:19;;;;;;;;;13.33;11.67;;;;;20.93;31.87;102175.78;5048736;28;45351;-80
2022/03/21 13:39:58;;;;;;;;;18.00;14.67;;;;;20.85;32.37;102164.97;5049399;28;45818;-74
2022/03/21 13:42:24;;;;;;;;;18.67;15.67;;;;;20.86;32.76;102182.59;5052899;28;45565;-74
2022/03/21 13:44:53;;;;;;;;;20.33;16.67;;;;;20.80;32.87;102176.03;5053084;28;45718;-74
2022/03/21 13:47:21;;;;;;;;;16.67;15.67;;;;;20.85;32.84;102170.56;5053301;28;45778;-78
2022/03/21 13:50:03;;;;;;;;;18.33;18.33;;;;;20.78;32.30;102162.34;5052459;27;45707;-79
2022/03/21 13:52:50;;;;;;;;;19.33;17.67;;;;;20.76;32.63;102152.50;5051001;28;45544;-78
2022/03/21 13:55:24;;;;;;;;;21.33;20.33;;;;;20.74;32.22;102158.31;5050791;28;45895;-76
2022/03/21 13:57:55;;;;;;;;;16.00;15.00;;;;;20.67;32.48;102156.75;5048983;28;45720;-80
2022/03/21 14:00:37;;;;;;;;;14.67;13.67;;;;;20.66;32.69;102160.63;5052913;28;45802;-79
2022/03/21 14:03:06;;;;;;;;;18.67;15.67;;;;;20.63;32.57;102148.84;5047112;28;45887;-73
2022/03/21 14:05:36;;;;;;;;;18.00;16.00;;;;;20.61;32.28;102147.38;5051352;28;45851;-76
2022/03/21 14:08:09;;;;;;;;;21.00;15.33;;;;;20.60;32.73;102159.66;5054023;28;45770;-73
2022/03/21 14:10:44;;;;;;;;;12.33;9.33;;;;;20.61;32.21;102152.97;5052606;28;45828;-73
2022/03/21 14:13:26;;;;;;;;;15.00;12.33;;;;;20.60;32.36;102157.69;5052906;28;45989;-78
2022/03/21 14:15:54;;;;;;;;;16.67;14.33;;;;;20.49;32.42;102133.44;5052433;28;45774;-72
2022/03/21 14:18:29;;;;;;;;;13.33;9.67;;;;;20.58;32.02;102148.75;5051571;28;45516;-74
2022/03/21 14:20:55;;;;;;;;;16.33;12.33;;;;;20.59;32.25;102150.41;5051809;28;45692;-77
2022/03/21 14:23:24;;;;;;;;;13.00;13.00;;;;;20.62;32.41;102144.34;5050915;28;47947;-73
2022/03/21 14:28:34;;;;;;;;;18.67;14.67;;;;;20.62;32.77;102143.53;5053182;28;45551;-79
2022/03/21 14:31:01;;;;;;;;;16.67;13.00;;;;;20.76;32.17;102138.56;5051734;28;45455;-74
2022/03/21 14:33:27;;;;;;;;;15.33;10.33;;;;;20.86;31.65;102141.59;5051497;28;45714;-73
2022/03/21 14:35:53;;;;;;;;;8.33;8.33;;;;;20.80;31.48;102125.84;5047667;28;45710;-79
2022/03/21 14:38:19;;;;;;;;;11.00;9.67;;;;;21.02;31.62;102131.63;5067652;28;45491;-79
2022/03/21 14:40:45;;;;;;;;;12.67;11.00;;;;;21.08;31.21;102138.19;5043791;28;46058;-79
2022/03/21 14:43:10;;;;;;;;;12.33;9.67;;;;;;;;5050510;28;46424;-75
2022/03/21 14:45:37;;;;;;;;;14.67;12.00;;;;;21.04;31.56;102142.56;5053333;28;45465;-79
2022/03/21 14:48:10;;;;;;;;;12.00;11.33;;;;;20.99;31.22;102135.75;5052398;28;45624;-72
2022/03/21 14:50:36;;;;;;;;;12.67;11.00;;;;;20.94;31.64;102137.56;5050589;28;45488;-79
2022/03/21 14:53:03;;;;;;;;;17.33;12.33;;;;;20.89;31.38;102135.53;5047697;28;45991;-78
2022/03/21 14:55:29;;;;;;;;;12.33;11.00;;;;;20.83;31.23;102139.28;5050614;28;45721;-78
2022/03/21 14:57:55;;;;;;;;;15.00;10.67;;;;;20.74;31.40;102130.44;5050234;28;45422;-74
2022/03/21 15:00:21;;;;;;;;;15.67;13.33;;;;;20.81;31.99;102141.50;5051484;28;45612;-80
2022/03/21 15:02:46;;;;;;;;;9.67;9.67;;;;;20.83;31.86;102125.34;5051854;28;45516;-75
2022/03/21 15:05:12;;;;;;;;;13.00;10.67;;;;;20.77;31.74;102107.66;5051653;28;45578;-75
2022/03/21 15:07:38;;;;;;;;;8.33;7.33;;;;;20.78;31.71;102128.88;5048236;28;45887;-79
2022/03/21 15:10:23;;;;;;;;;11.00;11.00;;;;;20.74;31.66;102122.09;5046345;28;45550;-74
2022/03/21 15:12:54;;;;;;;;;11.33;11.00;;;;;20.73;31.83;102127.91;5062913;27;46294;-79
2022/03/21 15:15:23;;;;;;;;;11.00;10.00;;;;;20.69;31.72;102130.34;5046399;28;45741;-78
2022/03/21 15:17:49;;;;;;;;;10.33;10.33;;;;;20.73;32.08;102122.31;5049558;28;45622;-76
2022/03/21 15:20:15;;;;;;;;;13.67;10.33;;;;;20.68;31.64;102119.44;5045642;28;45574;-78
2022/03/21 15:22:44;;;;;;;;;14.00;9.33;;;;;20.68;31.86;102119.44;5048058;28;45973;-78
2022/03/21 15:25:12;;;;;;;;;9.00;6.00;;;;;20.73;31.84;102127.91;5049057;28;45619;-74
2022/03/21 15:27:37;;;;;;;;;9.33;7.67;;;;;20.72;32.18;102123.41;5051727;28;45956;-80
2022/03/21 15:30:07;;;;;;;;;12.33;10.00;;;;;20.73;31.55;102120.38;5051919;28;45989;-74
2022/03/21 15:32:34;;;;;;;;;11.67;9.67;;;;;20.71;31.79;102110.59;5049896;28;47143;-74
2022/03/21 15:34:59;;;;;;;;;13.67;13.67;;;;;20.69;31.60;102118.31;5053110;28;45425;-80
2022/03/21 15:42:56;;;;;;;;;10.67;9.00;;;;;20.59;32.04;102116.13;5051505;28;46292;-80
2022/03/21 15:45:21;;;;;;;;;9.33;8.00;;;;;20.56;32.35;102122.19;5057466;28;45927;-75
2022/03/21 15:47:48;;;;;;;;;4.33;3.67;;;;;20.54;32.23;102116.00;5046304;27;46210;-79
2022/03/21 15:50:15;;;;;;;;;10.33;8.67;;;;;20.54;32.36;102113.19;5045894;28;45950;-81
2022/03/21 15:52:42;;;;;;;;;9.67;9.33;;;;;20.54;32.58;102108.50;5041928;27;46354;-79
2022/03/21 15:55:08;;;;;;;;;16.67;9.00;;;;;20.46;32.40;102106.06;5045339;28;45718;-75
2022/03/21 15:57:34;;;;;;;;;12.00;9.33;;;;;20.51;32.55;102114.56;5044583;28;45938;-74
2022/03/21 16:00:03;;;;;;;;;10.33;10.00;;;;;20.53;32.35;102117.94;5047169;28;45960;-74
2022/03/21 16:02:29;;;;;;;;;14.33;9.00;;;;;20.59;32.64;102111.38;5049350;28;48028;-75
2022/03/21 16:04:55;;;;;;;;;10.00;10.00;;;;;20.56;32.77;102100.72;5045961;27;45758;-77
2022/03/21 16:07:20;;;;;;;;;16.67;11.33;;;;;20.51;33.03;102119.25;5050016;27;45871;-77
2022/03/21 16:09:46;;;;;;;;;11.33;11.33;;;;;20.47;33.44;102118.91;5065778;28;46046;-79
2022/03/21 16:12:11;;;;;;;;;10.67;9.67;;;;;20.48;33.36;102109.47;5057479;28;46881;-78
2022/03/21 16:14:37;;;;;;;;;10.33;8.67;;;;;20.59;32.97;102104.97;5050163;27;45643;-81
2022/03/21 16:17:04;;;;;;;;;15.67;11.67;;;;;20.61;33.29;102103.66;5052074;28;45475;-79
2022/03/21 16:19:30;;;;;;;;;14.67;9.67;;;;;20.59;33.05;102105.81;5052635;27;45718;-78
2022/03/21 16:21:55;;;;;;;;;10.33;10.33;;;;;20.61;33.26;102109.22;5052471;28;46252;-78
2022/03/21 16:24:20;;;;;;;;;13.67;13.67;;;;;20.58;33.34;102103.28;5054183;27;45985;-80
2022/03/21 16:26:46;;;;;;;;;13.00;10.33;;;;;20.52;33.04;102095.88;5051511;28;46226;-80
2022/03/21 16:29:12;;;;;;;;;9.00;8.00;;;;;20.50;33.61;102098.09;5049058;28;45900;-80
2022/03/21 16:31:40;;;;;;;;;13.67;11.00;;;;;20.42;33.87;102094.56;5054809;28;46013;-80
2022/03/21 16:34:07;;;;;;;;;15.00;10.67;;;;;20.45;33.91;102110.78;5055128;27;45981;-81
2022/03/21 16:36:35;;;;;;;;;7.67;6.00;;;;;20.35;33.59;102110.53;5052705;28;45525;-78
2022/03/21 16:39:07;;;;;;;;;10.33;9.00;;;;;20.32;33.61;102101.84;5055448;27;45478;-73
2022/03/21 16:41:33;;;;;;;;;13.00;10.00;;;;;20.20;34.05;102097.09;5052107;28;46690;-80
2022/03/21 16:43:59;;;;;;;;;11.00;8.00;;;;;20.16;34.39;102095.88;5050768;28;45965;-81
2022/03/21 16:46:25;;;;;;;;;9.00;8.00;;;;;20.09;34.48;102104.34;5055329;27;45742;-73
2022/03/21 16:48:50;;;;;;;;;10.67;9.67;;;;;20.07;34.58;102097.31;5076197;27;46166;-78
2022/03/21 16:51:21;;;;;;;;;8.67;7.33;;;;;20.05;34.56;102102.28;5051677;27;46822;-79
2022/03/21 16:53:49;;;;;;;;;9.33;9.00;;;;;20.03;34.96;102104.44;5050399;27;45765;-74
2022/03/21 16:56:15;;;;;;;;;6.33;6.33;;;;;19.98;34.74;102104.31;5046534;27;45627;-78
2022/03/21 16:58:42;;;;;;;;;8.33;8.33;;;;;19.99;35.14;102106.88;5050036;28;45711;-78
2022/03/21 17:01:08;;;;;;;;;9.33;8.00;;;;;20.04;34.55;102109.75;5051977;28;47961;-79
2022/03/21 17:03:35;;;;;;;;;9.67;6.33;;;;;20.08;34.83;102099.84;5050509;28;45547;-73
2022/03/21 17:06:02;;;;;;;;;6.33;5.00;;;;;20.05;34.82;102097.56;5048191;28;47540;-73
2022/03/21 17:08:28;;;;;;;;;10.33;7.00;;;;;20.02;35.26;102097.19;5053199;28;45535;-73
2022/03/21 17:11:00;;;;;;;;;7.33;7.33;;;;;19.97;35.41;102097.03;5056994;27;46346;-79
2022/03/21 17:13:26;;;;;;;;;6.00;6.00;;;;;19.96;35.21;102112.06;5050521;28;45950;-75
2022/03/21 17:15:57;;;;;;;;;9.33;7.33;;;;;19.86;35.33;102113.47;5056577;28;45382;-80
2022/03/21 17:23:57;;;;;;;;;8.00;6.67;;;;;19.70;35.68;102116.91;5055130;28;45518;-80
2022/03/21 17:26:23;;;;;;;;;8.00;8.00;;;;;19.65;35.86;102120.41;5041686;28;45808;-75
2022/03/21 17:28:53;;;;;;;;;6.33;5.67;;;;;19.62;36.07;102118.09;5059059;27;45671;-76
2022/03/21 17:31:19;;;;;;;;;6.67;6.67;;;;;19.40;36.04;102106.63;5056137;27;46227;-80
2022/03/21 17:33:45;;;;;;;;;7.67;7.67;;;;;19.47;36.30;102121.28;5047904;27;45807;-79
2022/03/21 17:36:11;;;;;;;;;4.67;4.67;;;;;19.39;36.54;102125.25;5052634;28;45472;-78
2022/03/21 17:38:46;;;;;;;;;7.00;6.67;;;;;19.34;37.02;102124.25;5050486;28;45866;-79
2022/03/21 17:41:12;;;;;;;;;6.33;5.00;;;;;19.28;37.15;102122.41;5054250;28;45487;-75
2022/03/21 17:43:37;;;;;;;;;5.33;5.33;;;;;19.17;37.23;102127.66;5043900;27;45545;-76
2022/03/21 17:46:07;;;;;;;;;6.67;3.00;;;;;19.10;37.66;102135.28;5049081;28;45729;-79
2022/03/21 17:48:35;;;;;;;;;6.00;5.33;;;;;19.01;37.75;102126.38;5068473;27;45777;-80
2022/03/21 17:51:00;;;;;;;;;12.33;6.00;;;;;18.90;39.53;102137.41;5048159;27;45794;-82
2022/03/21 17:53:28;;;;;;;;;8.67;6.00;;;;;18.77;39.01;102133.69;5048533;28;46086;-73
2022/03/21 17:55:55;;;;;;;;;3.00;3.00;;;;;18.80;39.36;102138.78;5049635;28;45773;-81
2022/03/21 17:58:22;;;;;;;;;4.00;3.00;;;;;18.74;38.52;102136.88;5052578;27;45651;-75
2022/03/21 18:00:52;;;;;;;;;4.33;4.33;;;;;18.64;39.78;102139.38;5052371;27;48407;-83
2022/03/21 18:03:20;;;;;;;;;4.00;4.00;;;;;18.62;39.27;102141.50;5047513;28;45584;-81
2022/03/21 18:05:46;;;;;;;;;6.33;5.00;;;;;18.58;39.86;102143.03;5056208;28;45607;-80
2022/03/21 18:08:35;;;;;;;;;5.33;5.33;;;;;18.52;39.75;102142.88;5052740;27;45715;-74
2022/03/21 18:11:02;;;;;;;;;4.33;4.33;;;;;18.47;39.94;102145.50;5041806;28;46112;-79
2022/03/21 18:13:28;;;;;;;;;9.00;6.33;;;;;18.39;39.99;102148.56;5048847;28;45587;-72
2022/03/21 18:15:54;;;;;;;;;7.33;5.00;;;;;18.34;39.96;102156.75;5063826;27;45330;-79
2022/03/21 18:18:20;;;;;;;;;13.00;9.67;;;;;18.30;41.13;102153.53;5046712;28;45830;-77
2022/03/21 18:20:51;;;;;;;;;10.67;8.00;;;;;18.26;40.18;102148.66;5053951;28;45754;-81
2022/03/21 18:23:18;;;;;;;;;7.33;6.67;;;;;18.23;41.71;102157.44;5045387;27;45725;-78
2022/03/21 18:25:44;;;;;;;;;7.67;5.00;;;;;18.21;39.98;102163.22;5052706;28;45955;-78
2022/03/21 18:28:16;;;;;;;;;7.67;6.67;;;;;18.08;40.03;102152.22;5057498;27;46030;-82
2022/03/21 18:30:43;;;;;;;;;7.67;7.67;;;;;18.12;41.04;102165.44;5044665;28;46460;-81
2022/03/21 18:33:08;;;;;;;;;9.00;8.00;;;;;18.10;40.26;102167.59;5055628;28;45644;-83
2022/03/21 18:35:34;;;;;;;;;5.33;4.67;;;;;18.06;40.01;102166.34;5048045;27;45688;-81
2022/03/21 18:38:00;;;;;;;;;9.00;6.33;;;;;18.05;40.45;102170.19;5051503;28;45588;-77
2022/03/21 18:40:25;;;;;;;;;7.33;7.33;;;;;18.02;39.86;102176.19;5052945;27;45669;-82
2022/03/21 18:42:54;;;;;;;;;8.33;6.67;;;;;17.99;40.24;102177.50;5050329;28;45474;-83
2022/03/21 18:45:22;;;;;;;;;8.67;6.33;;;;;17.90;39.86;102167.72;5051893;28;45526;-76
2022/03/21 18:47:47;;;;;;;;;6.67;6.67;;;;;17.95;40.67;102175.41;5049315;28;46468;-78
2022/03/21 18:50:13;;;;;;;;;6.33;5.00;;;;;17.89;40.37;102170.69;5047940;27;46277;-83
2022/03/21 18:52:39;;;;;;;;;8.00;5.67;;;;;17.92;41.32;102178.59;5057675;28;45895;-77
2022/03/21 18:55:11;;;;;;;;;7.00;7.00;;;;;17.87;40.21;102182.00;5058065;27;45675;-83
2022/03/21 18:57:37;;;;;;;;;10.00;8.00;;;;;17.86;39.96;102185.00;5043776;28;45950;-75
2022/03/21 19:00:06;;;;;;;;;9.00;6.33;;;;;17.87;40.64;102189.47;5050565;28;45737;-74
2022/03/21 19:02:33;;;;;;;;;8.00;6.67;;;;;17.84;41.07;102193.53;5053890;28;45951;-80
2022/03/21 19:04:59;;;;;;;;;12.00;8.00;;;;;17.83;40.57;102201.03;5043435;28;45537;-77
2022/03/21 19:07:25;;;;;;;;;6.67;6.33;;;;;17.83;40.63;102195.47;5050040;27;45529;-83
2022/03/21 19:09:50;;;;;;;;;10.33;9.33;;;;;17.76;40.72;102197.44;5053413;28;45513;-82
2022/03/21 19:12:17;;;;;;;;;8.00;6.33;;;;;17.80;40.24;102206.19;5053458;28;45762;-77
2022/03/21 19:14:43;;;;;;;;;7.67;7.67;;;;;17.79;41.39;102201.69;5047709;28;45809;-76
2022/03/21 19:17:11;;;;;;;;;6.00;6.00;;;;;17.78;41.21;102209.19;5055322;27;45533;-82
2022/03/21 19:19:37;;;;;;;;;7.00;5.00;;;;;17.76;40.14;102200.22;5048802;28;45553;-83
2022/03/21 19:22:03;;;;;;;;;8.67;8.33;;;;;17.76;41.03;102216.03;5050743;27;45702;-80
2022/03/21 19:24:32;;;;;;;;;12.67;9.33;;;;;17.74;41.28;102213.47;5060340;27;45513;-79
2022/03/21 19:26:57;;;;;;;;;8.33;7.33;;;;;17.74;40.88;102212.59;5052688;27;45638;-76